LJPZ 200130Z AUTO 11008KT 9999 NCD 11/07 Q1026 LJPZ 200100Z AUTO 11008KT 9999 NCD 11/08 Q1026 LJPZ 200030Z AUTO 11007KT 9999 NCD 12/08 Q1026 LJPZ 200000Z AUTO 11007KT 9999 NCD 12/09 Q1026 LJPZ 192330Z AUTO 11006KT 9999 NCD 13/09 Q1026 LJPZ 192300Z AUTO 11008KT 9999 NCD 13/10 Q1027 LJPZ 192230Z AUTO 10008KT 9999 NCD 14/11 Q1026 LJPZ 192200Z AUTO 11007KT 9999 NCD 14/12 Q1026 LJPZ 192130Z AUTO 11007KT 9999 NCD 14/12 Q1026 LJPZ 192100Z AUTO 11006KT 9999 NCD 14/13 Q1026 LJPZ 192030Z AUTO 10005KT 9999 NCD 15/13 Q1026 LJPZ 192000Z 12005KT CAVOK 15/13 Q1026 LJPZ 191930Z 10004KT CAVOK 16/13 Q1026 LJPZ 191900Z 11004KT CAVOK 18/12 Q1026 LJPZ 191830Z 22002KT CAVOK 20/13 Q1026 LJPZ 191800Z 21002KT CAVOK 21/12 Q1026 LJPZ 191730Z 22003KT 190V260 CAVOK 22/10 Q1026 LJPZ 191700Z 21003KT 160V260 CAVOK 23/11 Q1026 LJPZ 191630Z 22004KT 190V260 CAVOK 23/13 Q1026 LJPZ 191600Z 20004KT 160V290 CAVOK 23/13 Q1026 LJPZ 191530Z 19006KT 160V220 CAVOK 23/13 Q1026 LJPZ 191500Z 23006KT 190V260 CAVOK 23/14 Q1026 LJPZ 191430Z 22005KT 170V270 CAVOK 24/13 Q1026 LJPZ 191400Z 23005KT 180V280 CAVOK 24/12 Q1027 LJPZ 191330Z 23005KT 180V280 CAVOK 23/12 Q1027 LJPZ 191300Z 24005KT 200V280 CAVOK 24/10 Q1027 LJPZ 191230Z 22007KT 190V250 CAVOK 24/09 Q1027 LJPZ 191200Z 24006KT 160V290 CAVOK 24/09 Q1027 LJPZ 191130Z 23006KT 180V280 CAVOK 23/08 Q1027 LJPZ 191100Z 23006KT 160V280 CAVOK 24/07 Q1027 LJPZ 191030Z 25005KT 210V300 CAVOK 23/07 Q1027 LJPZ 191000Z 25006KT 190V340 CAVOK 23/08 Q1027 LJPZ 190930Z 29006KT 260V320 CAVOK 23/06 Q1027 LJPZ 190900Z 29005KT 250V330 CAVOK 22/10 Q1027 LJPZ 190830Z 29004KT 260V340 CAVOK 23/06 Q1027 LJPZ 190800Z VRB02KT CAVOK 22/06 Q1027 LJPZ 190730Z 00000KT CAVOK 22/05 Q1027 LJPZ 190700Z 10003KT 060V130 CAVOK 20/06 Q1027 LJPZ 190630Z 10004KT CAVOK 18/07 Q1027 LJPZ 190600Z 10006KT CAVOK 16/07 Q1027 LJPZ 190530Z 11007KT 070V130 CAVOK 14/07 Q1027 LJPZ 190500Z 10007KT CAVOK 12/06 Q1027 LJPZ 190430Z 10008KT CAVOK 11/06 Q1026 LJPZ 190400Z 11008KT CAVOK 10/06 Q1026 LJPZ 190330Z AUTO 10006KT 9999 NCD 11/06 Q1026 LJPZ 190300Z AUTO 11008KT 9999 NCD 11/06 Q1026 LJPZ 190230Z AUTO 11008KT 9999 NCD 12/06 Q1026 LJPZ 190200Z AUTO 11006KT 9999 NCD 12/07 Q1026 LJPZ 190130Z AUTO VRB01KT 9999 NCD 13/06 Q1026 LJPZ 190100Z AUTO VRB02KT 9999 NCD 13/07 Q1026 LJPZ 190030Z AUTO 11007KT 9999 NCD 13/07 Q1026 LJPZ 190000Z AUTO 14003KT 9999 FEW070/// 13/08 Q1026 LJPZ 182330Z AUTO 10005KT 9999 SCT075/// 14/08 Q1026 LJPZ 182300Z AUTO 11001KT 9999 NCD 14/08 Q1026 LJPZ 182230Z AUTO VRB03KT 9999 NCD 14/10 Q1026 LJPZ 182200Z AUTO 11005KT 9999 NCD 15/11 Q1026 LJPZ 182130Z AUTO 11004KT 9999 NCD 16/13 Q1025 LJPZ 182100Z AUTO VRB01KT 9999 NCD 17/13 Q1025 LJPZ 182030Z AUTO 08004KT 050V120 9999 NCD 18/14 Q1025 LJPZ 182000Z 10004KT 060V120 CAVOK 17/15 Q1025 LJPZ 181930Z 12004KT 100V160 CAVOK 18/15 Q1024 LJPZ 181900Z 12003KT CAVOK 20/15 Q1024 LJPZ 181830Z VRB02KT CAVOK 21/15 Q1024 LJPZ 181800Z VRB01KT CAVOK 21/15 Q1023 LJPZ 181730Z VRB02KT 9999 FEW060 SCT085 22/15 Q1023 LJPZ 181700Z 21006KT 9999 FEW060 SCT085 24/16 Q1023 LJPZ 181630Z 22007KT 9999 FEW060 24/16 Q1023 LJPZ 181600Z 21008KT 180V240 9999 FEW060 24/15 Q1022 LJPZ 181530Z 20009KT 9999 FEW060 24/16 Q1022 LJPZ 181500Z 21010KT 9999 FEW060 25/16 Q1022 LJPZ 181430Z 21014KT 9999 FEW060 25/17 Q1022 LJPZ 181400Z 04008KT 010V080 9999 FEW060 28/10 Q1022

METAR Messwerte "PORTOROZ" LJPZ

Zurück zur Übersicht

Ortsname
Ländercode / m ü. NN
Zeit Temperatur Taupunkt Rel.
Luftfeuchte
Luftdruck:
Altimeter
NN
Station
Wind in Beaufort
(Knoten)
Sichtweite
(Meter)
Wolken
(Meter über Grund)
Wettererscheinung
PORTOROZ
SI 2
Fr 20.05. 03:3011776 %1026
1026
1026
OSO 3 (8)>= 10000  
PORTOROZ
SI 2
Fr 20.05. 03:0011882 %1026
1026
1026
OSO 3 (8)>= 10000  
PORTOROZ
SI 2
Fr 20.05. 02:3012876 %1026
1026
1026
OSO 3 (7)>= 10000  
PORTOROZ
SI 2
Fr 20.05. 02:0012982 %1026
1026
1026
OSO 3 (7)>= 10000  
PORTOROZ
SI 2
Fr 20.05. 01:3013977 %1026
1026
1026
OSO 2 (6)>= 10000  
PORTOROZ
SI 2
Fr 20.05. 01:00131082 %1027
1027
1027
OSO 3 (8)>= 10000  
PORTOROZ
SI 2
Fr 20.05. 00:30141182 %1026
1026
1026
O 3 (8)>= 10000  
PORTOROZ
SI 2
Fr 20.05. 00:00141288 %1026
1026
1026
OSO 3 (7)>= 10000  
PORTOROZ
SI 2
Do 19.05. 23:30141288 %1026
1026
1026
OSO 3 (7)>= 10000  
PORTOROZ
SI 2
Do 19.05. 23:00141394 %1026
1026
1026
OSO 2 (6)>= 10000  
PORTOROZ
SI 2
Do 19.05. 22:30151388 %1026
1026
1026
O 2 (5)>= 10000  
PORTOROZ
SI 2
Do 19.05. 22:00151388 %1026
1026
1026
OSO 2 (5)>= 10000Nicht signifikant 
PORTOROZ
SI 2
Do 19.05. 21:30161382 %1026
1026
1026
O 2 (4)>= 10000Nicht signifikant 
PORTOROZ
SI 2
Do 19.05. 21:00181268 %1026
1026
1026
OSO 2 (4)>= 10000Nicht signifikant 
PORTOROZ
SI 2
Do 19.05. 20:30201364 %1026
1026
1026
SW 1 (2)>= 10000Nicht signifikant 
PORTOROZ
SI 2
Do 19.05. 20:00211256 %1026
1026
1026
SSW 1 (2)>= 10000Nicht signifikant 
PORTOROZ
SI 2
Do 19.05. 19:30221046 %1026
1026
1026
SW 2 (3)
S - W
>= 10000Nicht signifikant 
PORTOROZ
SI 2
Do 19.05. 19:00231147 %1026
1026
1026
SSW 2 (3)
SSO - W
>= 10000Nicht signifikant 
PORTOROZ
SI 2
Do 19.05. 18:30231353 %1026
1026
1026
SW 2 (4)
S - W
>= 10000Nicht signifikant 
PORTOROZ
SI 2
Do 19.05. 18:00231353 %1026
1026
1026
SSW 2 (4)
SSO - WNW
>= 10000Nicht signifikant 
PORTOROZ
SI 2
Do 19.05. 17:30231353 %1026
1026
1026
S 2 (6)
SSO - SW
>= 10000Nicht signifikant 
PORTOROZ
SI 2
Do 19.05. 17:00231457 %1026
1026
1026
SW 2 (6)
S - W
>= 10000Nicht signifikant 
PORTOROZ
SI 2
Do 19.05. 16:30241350 %1026
1026
1026
SW 2 (5)
S - W
>= 10000Nicht signifikant 
PORTOROZ
SI 2
Do 19.05. 16:00241247 %1027
1027
1027
SW 2 (5)
S - W
>= 10000Nicht signifikant 
PORTOROZ
SI 2
Do 19.05. 15:30231250 %1027
1027
1027
SW 2 (5)
S - W
>= 10000Nicht signifikant 
PORTOROZ
SI 2
Do 19.05. 15:00241041 %1027
1027
1027
WSW 2 (5)
SSW - W
>= 10000Nicht signifikant 
PORTOROZ
SI 2
Do 19.05. 14:3024938 %1027
1027
1027
SW 3 (7)
S - WSW
>= 10000Nicht signifikant 
PORTOROZ
SI 2
Do 19.05. 14:0024938 %1027
1027
1027
WSW 2 (6)
SSO - WNW
>= 10000Nicht signifikant 
PORTOROZ
SI 2
Do 19.05. 13:3023838 %1027
1027
1027
SW 2 (6)
S - W
>= 10000Nicht signifikant 
PORTOROZ
SI 2
Do 19.05. 13:0024734 %1027
1027
1027
SW 2 (6)
SSO - W
>= 10000Nicht signifikant 
PORTOROZ
SI 2
Do 19.05. 12:3023736 %1027
1027
1027
WSW 2 (5)
SSW - WNW
>= 10000Nicht signifikant 
PORTOROZ
SI 2
Do 19.05. 12:0023838 %1027
1027
1027
WSW 2 (6)
S - NNW
>= 10000Nicht signifikant 
PORTOROZ
SI 2
Do 19.05. 11:3023633 %1027
1027
1027
WNW 2 (6)
W - NW
>= 10000Nicht signifikant 
PORTOROZ
SI 2
Do 19.05. 11:00221046 %1027
1027
1027
WNW 2 (5)
WSW - NNW
>= 10000Nicht signifikant 
PORTOROZ
SI 2
Do 19.05. 10:3023633 %1027
1027
1027
WNW 2 (4)
W - NNW
>= 10000Nicht signifikant 
PORTOROZ
SI 2
Do 19.05. 10:0022635 %1027
1027
1027
Uml 1 (2)>= 10000Nicht signifikant 
PORTOROZ
SI 2
Do 19.05. 09:3022533 %1027
1027
1027
Windstill>= 10000Nicht signifikant 
PORTOROZ
SI 2
Do 19.05. 09:0020640 %1027
1027
1027
O 2 (3)
ONO - SO
>= 10000Nicht signifikant 
PORTOROZ
SI 2
Do 19.05. 08:3018749 %1027
1027
1027
O 2 (4)>= 10000Nicht signifikant 
PORTOROZ
SI 2
Do 19.05. 08:0016755 %1027
1027
1027
O 2 (6)>= 10000Nicht signifikant 
PORTOROZ
SI 2
Do 19.05. 07:3014763 %1027
1027
1027
OSO 3 (7)
ONO - SO
>= 10000Nicht signifikant 
PORTOROZ
SI 2
Do 19.05. 07:0012667 %1027
1027
1027
O 3 (7)>= 10000Nicht signifikant 
PORTOROZ
SI 2
Do 19.05. 06:3011671 %1026
1026
1026
O 3 (8)>= 10000Nicht signifikant 
PORTOROZ
SI 2
Do 19.05. 06:0010676 %1026
1026
1026
OSO 3 (8)>= 10000Nicht signifikant 
PORTOROZ
SI 2
Do 19.05. 05:3011671 %1026
1026
1026
O 2 (6)>= 10000  
PORTOROZ
SI 2
Do 19.05. 05:0011671 %1026
1026
1026
OSO 3 (8)>= 10000  
PORTOROZ
SI 2
Do 19.05. 04:3012667 %1026
1026
1026
OSO 3 (8)>= 10000  
PORTOROZ
SI 2
Do 19.05. 04:0012771 %1026
1026
1026
OSO 2 (6)>= 10000  
PORTOROZ
SI 2
Do 19.05. 03:3013662 %1026
1026
1026
Uml 1 (1)>= 10000  
PORTOROZ
SI 2
Do 19.05. 03:0013767 %1026
1026
1026
Uml 1 (2)>= 10000  
PORTOROZ
SI 2
Do 19.05. 02:3013767 %1026
1026
1026
OSO 3 (7)>= 10000  
PORTOROZ
SI 2
Do 19.05. 02:0013872 %1026
1026
1026
SO 2 (3)>= 10000Leicht bewölkt (2100) 
PORTOROZ
SI 2
Do 19.05. 01:3014867 %1026
1026
1026
O 2 (5)>= 10000Wolkig (2300) 
PORTOROZ
SI 2
Do 19.05. 01:0014867 %1026
1026
1026
OSO 1 (1)>= 10000  
PORTOROZ
SI 2
Do 19.05. 00:30141077 %1026
1026
1026
Uml 2 (3)>= 10000  
PORTOROZ
SI 2
Do 19.05. 00:00151177 %1026
1026
1026
OSO 2 (5)>= 10000  
PORTOROZ
SI 2
Mi 18.05. 23:30161382 %1025
1025
1025
OSO 2 (4)>= 10000  
PORTOROZ
SI 2
Mi 18.05. 23:00171377 %1025
1025
1025
Uml 1 (1)>= 10000  
PORTOROZ
SI 2
Mi 18.05. 22:30181477 %1025
1025
1025
O 2 (4)
NO - OSO
>= 10000  
PORTOROZ
SI 2
Mi 18.05. 22:00171588 %1025
1025
1025
O 2 (4)
ONO - OSO
>= 10000Nicht signifikant 
PORTOROZ
SI 2
Mi 18.05. 21:30181583 %1024
1024
1024
OSO 2 (4)
O - SSO
>= 10000Nicht signifikant 
PORTOROZ
SI 2
Mi 18.05. 21:00201573 %1024
1024
1024
OSO 2 (3)>= 10000Nicht signifikant 
PORTOROZ
SI 2
Mi 18.05. 20:30211569 %1024
1024
1024
Uml 1 (2)>= 10000Nicht signifikant 
PORTOROZ
SI 2
Mi 18.05. 20:00211569 %1023
1023
1023
Uml 1 (1)>= 10000Nicht signifikant 
PORTOROZ
SI 2
Mi 18.05. 19:30221565 %1023
1023
1023
Uml 1 (2)>= 10000Wolkig (2600)
Leicht bewölkt (1800)
 
PORTOROZ
SI 2
Mi 18.05. 19:00241661 %1023
1023
1023
SSW 2 (6)>= 10000Wolkig (2600)
Leicht bewölkt (1800)
 
PORTOROZ
SI 2
Mi 18.05. 18:30241661 %1023
1023
1023
SW 3 (7)>= 10000Leicht bewölkt (1800) 
PORTOROZ
SI 2
Mi 18.05. 18:00241557 %1022
1022
1022
SSW 3 (8)
S - WSW
>= 10000Leicht bewölkt (1800) 
PORTOROZ
SI 2
Mi 18.05. 17:30241661 %1022
1022
1022
SSW 3 (9)>= 10000Leicht bewölkt (1800) 
PORTOROZ
SI 2
Mi 18.05. 17:00251657 %1022
1022
1022
SSW 3 (10)>= 10000Leicht bewölkt (1800) 
PORTOROZ
SI 2
Mi 18.05. 16:30251761 %1022
1022
1022
SSW 4 (14)>= 10000Leicht bewölkt (1800) 
PORTOROZ
SI 2
Mi 18.05. 16:00281032 %1022
1022
1022
NO 3 (8)
N - O
>= 10000Leicht bewölkt (1800) 

Altimeter: Einstellung am Altimeter (Höhenmesser), die Höhe 0 muss auf diesen Luftdruckwert zeigen, damit das Gerät die Stationshöhe richtig anzeigt.

NN: Luftdruck reduziert auf "Normal Null", auf Meereshöhe, dieser von der Temperatur abhängige Wert wird bisweilen unkorrekt einfach als "Luftdruck" bezeichnet. Eigentlich nur eine fiktive Größe, die es erlaubt, Stationen auf unterschiedlichen Höhen miteinander zu vergleichen.

Station: Realer Luftdruck an der Station.